Orlando, Florida
Current Conditions -  °F | °C
As of 10:53 PM on Friday 24 Oct 2014 (Local Time) from KORL Reporting Station
Overcast Overcast  
Wind Chill: 70°   Ceiling: 4500
Heat Index: 70°   Visibility: 10mi
Dew Point: 59°   Wind: 6mph
Humidity: 68%   Direction: 350°N
Pressure: 29.99"   Gusts: NA
Location:  28.54°N, 81.38°W
Report Text: KORL 250253Z AUTO 35005KT 10SM OVC045 21/15 A2999 RMK AO2 SLP157 T02110150 51017
Loading
Personal Weather Stations






























Interactive Weather Map New forecast layout! Learn more

10-Day Weather Forecast

Advertisements
Track Severe Weather on mobile